Time;durP1;ratioP1;P1;durP2;ratioP2;P2;SDS_P1;SDS_P2;PMS_P1;PMS_P2;Temp;Humidity;BMP_temperature;BMP_pressure;BME280_temperature;BME280_humidity;BME280_pressure;Samples;Min_cycle;Max_cycle;Signal;HPM_P1;HPM_P2
2024/04/14 00:01:22;;;;;;;3.65;2.85;;;18.90;96.70;;;;;;5381627;26;20109;-78
2024/04/14 00:03:57;;;;;;;4.10;3.00;;;18.90;96.70;;;;;;5389809;26;20079;-77
2024/04/14 00:06:26;;;;;;;4.30;3.00;;;19.00;96.70;;;;;;5405811;26;19996;-77
2024/04/14 00:08:57;;;;;;;4.88;2.80;;;19.00;96.70;;;;;;5382206;26;20031;-77
2024/04/14 00:11:26;;;;;;;3.50;2.63;;;18.90;96.70;;;;;;5436649;26;20797;-77
2024/04/14 00:13:56;;;;;;;4.47;3.03;;;18.80;96.70;;;;;;5417580;26;20026;-78
2024/04/14 00:16:25;;;;;;;3.50;2.97;;;18.70;96.70;;;;;;5390149;26;20337;-78
2024/04/14 00:18:57;;;;;;;3.85;3.05;;;18.70;96.70;;;;;;5384822;26;20040;-79
2024/04/14 00:21:27;;;;;;;5.15;2.80;;;18.70;96.70;;;;;;5406433;26;20111;-78
2024/04/14 00:23:55;;;;;;;4.72;3.08;;;18.70;96.70;;;;;;5379985;26;19996;-78
2024/04/14 00:26:24;;;;;;;5.90;3.03;;;18.70;96.70;;;;;;5382802;26;20003;-78
2024/04/14 00:28:55;;;;;;;4.95;3.25;;;18.80;96.70;;;;;;5394501;26;20000;-77
2024/04/14 00:31:24;;;;;;;3.22;2.72;;;18.80;96.70;;;;;;5382428;26;20478;-78
2024/04/14 00:34:01;;;;;;;5.93;2.95;;;18.70;96.70;;;;;;5388888;26;20023;-78
2024/04/14 00:36:31;;;;;;;3.78;3.13;;;18.60;96.70;;;;;;5373972;26;19999;-78
2024/04/14 00:38:59;;;;;;;2.92;2.60;;;18.70;96.70;;;;;;5409994;26;20010;-78
2024/04/14 00:41:27;;;;;;;4.50;2.55;;;18.60;96.70;;;;;;5388686;26;20014;-78
2024/04/14 00:43:56;;;;;;;5.90;3.20;;;18.50;96.70;;;;;;5395596;26;20680;-78
2024/04/14 00:46:24;;;;;;;6.53;3.25;;;18.50;96.70;;;;;;5409972;26;20464;-77
2024/04/14 00:48:53;;;;;;;6.43;3.10;;;18.60;96.70;;;;;;5388701;26;19999;-78
2024/04/14 00:51:25;;;;;;;5.97;3.13;;;18.60;96.70;;;;;;5378530;26;20012;-78
2024/04/14 00:53:54;;;;;;;3.35;2.80;;;18.60;96.70;;;;;;5397288;26;20023;-77
2024/04/14 00:56:23;;;;;;;3.30;2.72;;;18.60;96.70;;;;;;5407607;26;20008;-78
2024/04/14 00:58:52;;;;;;;4.88;3.20;;;18.50;96.70;;;;;;5393106;26;20007;-78
2024/04/14 01:01:21;;;;;;;3.63;2.83;;;18.50;96.70;;;;;;5391090;26;20019;-78
2024/04/14 01:03:51;;;;;;;3.28;2.97;;;18.60;96.70;;;;;;5380517;26;20025;-78
2024/04/14 01:06:23;;;;;;;5.43;2.88;;;18.60;96.70;;;;;;5365667;26;20111;-79
2024/04/14 01:08:52;;;;;;;4.13;2.90;;;18.50;96.70;;;;;;5374037;26;20453;-78
2024/04/14 01:11:20;;;;;;;4.13;2.85;;;18.40;96.70;;;;;;5398593;26;20004;-78
2024/04/14 01:13:49;;;;;;;4.47;3.00;;;18.30;96.70;;;;;;5397035;26;20008;-78
2024/04/14 01:16:18;;;;;;;4.75;2.97;;;18.30;96.70;;;;;;5394895;26;19998;-78
2024/04/14 01:18:46;;;;;;;6.55;3.00;;;18.30;96.70;;;;;;5408010;26;20003;-77
2024/04/14 01:21:15;;;;;;;5.13;2.90;;;18.30;96.70;;;;;;5407867;26;20478;-77
2024/04/14 01:23:45;;;;;;;3.75;2.70;;;18.20;96.70;;;;;;5404076;26;20054;-78
2024/04/14 01:26:17;;;;;;;4.47;2.85;;;18.20;96.70;;;;;;5379952;26;20004;-78
2024/04/14 01:28:45;;;;;;;5.03;2.53;;;18.20;96.70;;;;;;5407541;26;19999;-80
2024/04/14 01:31:14;;;;;;;7.15;2.45;;;18.20;96.70;;;;;;5408152;26;20018;-80
2024/04/14 01:33:43;;;;;;;4.40;2.70;;;18.10;96.70;;;;;;5383189;26;20000;-80
2024/04/14 01:36:15;;;;;;;3.35;2.60;;;18.00;96.70;;;;;;5413982;26;20039;-81
2024/04/14 01:38:44;;;;;;;4.55;2.97;;;18.00;96.70;;;;;;5383957;26;20040;-79
2024/04/14 01:41:12;;;;;;;4.00;2.95;;;18.00;96.70;;;;;;5378412;26;20000;-80
2024/04/14 01:43:43;;;;;;;3.63;2.88;;;18.00;96.70;;;;;;5390755;26;20022;-78
2024/04/14 01:46:11;;;;;;;4.13;3.03;;;18.00;96.70;;;;;;5394720;26;20016;-78
2024/04/14 01:48:40;;;;;;;5.45;3.28;;;17.90;96.70;;;;;;5379133;26;20046;-79
2024/04/14 01:51:08;;;;;;;4.60;3.10;;;17.80;96.70;;;;;;5389036;26;19999;-79
2024/04/14 01:53:36;;;;;;;3.80;3.30;;;17.80;96.70;;;;;;5382059;26;19999;-78
2024/04/14 01:56:05;;;;;;;3.72;3.08;;;17.80;96.70;;;;;;5377433;26;20010;-78
2024/04/14 01:58:33;;;;;;;5.40;3.20;;;17.70;96.70;;;;;;5384005;26;20019;-78
2024/04/14 02:01:05;;;;;;;3.50;2.92;;;17.70;96.70;;;;;;5405384;26;20034;-78
2024/04/14 02:03:33;;;;;;;3.97;2.78;;;17.70;96.70;;;;;;5384606;26;20000;-78
2024/04/14 02:06:02;;;;;;;6.30;3.08;;;17.60;96.70;;;;;;5389161;26;20007;-78
2024/04/14 02:08:30;;;;;;;3.70;3.10;;;17.50;96.70;;;;;;5392692;26;20001;-79
2024/04/14 02:11:01;;;;;;;6.93;3.20;;;17.50;96.70;;;;;;5380493;26;19999;-78
2024/04/14 02:13:29;;;;;;;5.10;3.13;;;17.50;96.70;;;;;;5406487;26;20396;-78
2024/04/14 02:15:59;;;;;;;5.47;3.08;;;17.50;96.70;;;;;;5408900;26;20004;-77
2024/04/14 02:18:31;;;;;;;4.93;2.90;;;17.50;96.70;;;;;;5406653;26;20000;-77
2024/04/14 02:20:59;;;;;;;5.88;3.67;;;17.60;96.70;;;;;;5381099;26;20014;-78
2024/04/14 02:23:29;;;;;;;6.05;3.75;;;17.50;96.70;;;;;;5394910;26;20013;-77
2024/04/14 02:26:00;;;;;;;5.55;3.58;;;17.50;96.70;;;;;;5378841;26;20068;-78
2024/04/14 02:28:29;;;;;;;4.32;3.38;;;17.50;96.70;;;;;;5383900;26;20000;-78
2024/04/14 02:30:58;;;;;;;4.90;3.42;;;17.40;96.70;;;;;;5426161;26;19995;-78
2024/04/14 02:33:27;;;;;;;3.85;3.20;;;17.40;96.70;;;;;;5402897;26;20004;-78
2024/04/14 02:35:59;;;;;;;3.45;2.80;;;17.30;96.70;;;;;;5417549;26;20061;-78
2024/04/14 02:38:28;;;;;;;4.43;2.90;;;17.30;96.70;;;;;;5376461;26;20004;-78
2024/04/14 02:40:57;;;;;;;3.70;3.00;;;17.40;96.70;;;;;;5407864;26;20028;-79
2024/04/14 02:43:28;;;;;;;3.72;2.97;;;17.40;96.70;;;;;;5386511;26;20011;-78
2024/04/14 02:45:57;;;;;;;4.30;2.97;;;17.30;96.70;;;;;;5383825;26;20069;-78
2024/04/14 02:48:27;;;;;;;3.83;2.90;;;17.30;96.70;;;;;;5384980;26;20011;-79
2024/04/14 02:50:58;;;;;;;6.10;2.78;;;17.20;96.70;;;;;;5391796;26;20000;-78
2024/04/14 02:53:29;;;;;;;4.30;2.85;;;17.10;96.70;;;;;;5398509;26;20019;-78
2024/04/14 02:55:57;;;;;;;4.38;2.88;;;17.10;96.70;;;;;;5410347;26;20429;-78
2024/04/14 02:58:26;;;;;;;4.30;2.67;;;17.10;96.70;;;;;;5383705;26;20435;-77
2024/04/14 03:01:02;;;;;;;3.92;2.90;;;17.10;96.70;;;;;;5381619;26;20011;-78
2024/04/14 03:03:32;;;;;;;4.47;2.80;;;17.00;96.70;;;;;;5398571;26;20338;-78
2024/04/14 03:06:05;;;;;;;3.65;2.90;;;17.10;96.70;;;;;;5380031;26;20000;-77
2024/04/14 03:08:35;;;;;;;3.08;2.78;;;17.10;96.70;;;;;;5411339;26;20004;-78
2024/04/14 03:11:04;;;;;;;2.90;2.50;;;17.00;96.70;;;;;;5386871;26;20003;-78
2024/04/14 03:13:33;;;;;;;3.38;2.30;;;17.10;96.70;;;;;;5396364;26;20021;-77
2024/04/14 03:16:02;;;;;;;4.28;2.70;;;17.10;96.70;;;;;;5418097;26;20373;-78
2024/04/14 03:18:33;;;;;;;5.55;3.20;;;17.10;96.70;;;;;;5380788;26;19999;-77
2024/04/14 03:21:05;;;;;;;4.20;2.72;;;17.00;96.70;;;;;;5380724;26;20014;-78
2024/04/14 03:23:34;;;;;;;3.83;2.70;;;17.00;96.70;;;;;;5391731;26;19999;-78
2024/04/14 03:26:02;;;;;;;3.75;2.47;;;17.00;96.70;;;;;;5406371;26;20018;-78
2024/04/14 03:28:32;;;;;;;6.57;2.90;;;17.00;96.70;;;;;;5425424;26;20534;-78
2024/04/14 03:31:02;;;;;;;4.50;2.65;;;16.80;96.70;;;;;;5396456;26;20015;-78
2024/04/14 03:33:31;;;;;;;3.75;2.53;;;16.70;96.70;;;;;;5401583;26;20000;-78
2024/04/14 03:36:01;;;;;;;3.17;2.88;;;16.80;96.70;;;;;;5395550;26;19999;-78
2024/04/14 03:38:32;;;;;;;3.97;3.08;;;16.80;96.70;;;;;;5418705;26;20028;-78
2024/04/14 03:41:02;;;;;;;4.60;2.88;;;16.80;96.70;;;;;;5412792;26;19999;-78
2024/04/14 03:43:31;;;;;;;4.90;2.67;;;16.80;96.70;;;;;;5400113;26;20000;-78
2024/04/14 03:46:01;;;;;;;4.22;3.15;;;16.80;96.70;;;;;;5404893;26;20023;-78
2024/04/14 03:48:29;;;;;;;4.85;3.15;;;16.70;96.70;;;;;;5410942;26;20000;-78
2024/04/14 03:50:58;;;;;;;5.13;3.47;;;16.70;96.70;;;;;;5380598;26;20000;-78
2024/04/14 03:53:28;;;;;;;5.07;3.38;;;16.60;96.70;;;;;;5392584;26;20011;-78
2024/04/14 03:56:00;;;;;;;4.22;3.08;;;16.60;96.70;;;;;;5391297;26;20032;-78
2024/04/14 03:58:30;;;;;;;6.13;3.42;;;16.70;96.70;;;;;;5409536;26;20720;-78
2024/04/14 04:01:01;;;;;;;5.53;3.20;;;16.50;96.70;;;;;;5385623;26;20073;-78
2024/04/14 04:03:30;;;;;;;4.35;3.17;;;16.50;96.70;;;;;;5410484;26;20007;-78
2024/04/14 04:05:58;;;;;;;4.60;2.90;;;16.40;96.70;;;;;;5379523;26;20077;-79
2024/04/14 04:08:26;;;;;;;5.18;3.53;;;16.40;96.70;;;;;;5407844;26;20011;-78
2024/04/14 04:11:02;;;;;;;4.88;3.47;;;16.30;96.70;;;;;;5414080;26;20007;-78
2024/04/14 04:13:32;;;;;;;6.07;3.72;;;16.20;96.70;;;;;;5379699;26;20008;-78
2024/04/14 04:16:03;;;;;;;3.97;3.58;;;16.20;96.70;;;;;;5381776;26;20003;-78
2024/04/14 04:18:32;;;;;;;5.50;3.58;;;16.30;96.70;;;;;;5397390;26;20004;-78
2024/04/14 04:21:08;;;;;;;5.20;3.47;;;16.30;96.70;;;;;;5408327;26;20010;-78
2024/04/14 04:23:38;;;;;;;5.00;3.80;;;16.30;96.70;;;;;;5413208;26;19999;-78
2024/04/14 04:26:09;;;;;;;6.47;3.80;;;16.30;96.70;;;;;;5408469;26;20007;-78
2024/04/14 04:28:38;;;;;;;5.80;3.50;;;16.30;96.70;;;;;;5428206;26;20434;-77
2024/04/14 04:31:14;;;;;;;6.00;3.75;;;16.30;96.70;;;;;;5403773;26;20003;-78
2024/04/14 04:33:44;;;;;;;3.78;3.00;;;16.20;96.70;;;;;;5401596;26;20406;-78
2024/04/14 04:36:15;;;;;;;4.65;3.70;;;16.20;96.70;;;;;;5419162;26;20003;-78
2024/04/14 04:38:44;;;;;;;5.65;4.00;;;16.10;96.70;;;;;;5386474;26;20000;-78
2024/04/14 04:41:16;;;;;;;5.38;3.78;;;16.10;96.70;;;;;;5422549;26;20004;-79
2024/04/14 04:43:44;;;;;;;5.10;3.58;;;16.20;96.70;;;;;;5384954;26;19999;-78
2024/04/14 04:46:13;;;;;;;4.85;3.53;;;16.20;96.70;;;;;;5404415;26;20013;-78
2024/04/14 04:48:42;;;;;;;5.63;4.05;;;16.10;96.70;;;;;;5374157;26;20003;-78
2024/04/14 04:51:11;;;;;;;6.88;3.50;;;16.30;96.70;;;;;;5376239;26;20487;-78
2024/04/14 04:53:42;;;;;;;6.18;3.20;;;16.30;96.70;;;;;;5389940;26;20093;-78
2024/04/14 04:56:14;;;;;;;7.05;3.10;;;16.20;96.70;;;;;;5395981;26;20070;-78
2024/04/14 04:58:43;;;;;;;4.65;3.08;;;16.30;96.70;;;;;;5376065;26;20077;-78
2024/04/14 05:01:12;;;;;;;6.10;3.30;;;16.30;96.70;;;;;;5408539;26;20000;-78
2024/04/14 05:03:43;;;;;;;4.47;2.78;;;16.20;96.70;;;;;;5408800;26;20007;-78
2024/04/14 05:06:12;;;;;;;6.05;3.20;;;16.10;96.70;;;;;;5391595;26;20000;-78
2024/04/14 05:08:41;;;;;;;4.50;3.03;;;16.20;96.70;;;;;;5374210;26;20019;-78
2024/04/14 05:11:09;;;;;;;4.57;2.90;;;16.30;96.70;;;;;;5398970;26;20019;-78
2024/04/14 05:13:41;;;;;;;9.43;3.58;;;16.30;96.70;;;;;;5408063;26;20415;-78
2024/04/14 05:16:12;;;;;;;4.57;3.30;;;16.40;96.70;;;;;;5383537;26;19999;-78
2024/04/14 05:18:42;;;;;;;4.65;3.20;;;16.40;96.70;;;;;;5383085;26;20025;-78
2024/04/14 05:21:12;;;;;;;7.50;3.63;;;16.30;96.70;;;;;;5385710;26;20007;-77
2024/04/14 05:23:40;;;;;;;8.98;3.90;;;16.30;96.70;;;;;;5406229;26;20012;-78
2024/04/14 05:26:09;;;;;;;3.63;2.97;;;16.40;96.70;;;;;;5404847;26;20000;-78
2024/04/14 05:28:41;;;;;;;4.22;3.10;;;16.50;96.70;;;;;;5380820;26;20022;-77
2024/04/14 05:31:10;;;;;;;5.25;3.20;;;16.50;96.70;;;;;;5410374;26;20749;-79
2024/04/14 05:33:41;;;;;;;4.40;3.10;;;16.60;96.70;;;;;;5379202;26;19999;-78
2024/04/14 05:36:10;;;;;;;3.53;2.88;;;16.70;96.70;;;;;;5394398;26;20011;-78
2024/04/14 05:38:41;;;;;;;4.18;2.78;;;16.70;96.70;;;;;;5401036;26;20039;-78
2024/04/14 05:41:09;;;;;;;3.83;3.05;;;16.70;96.70;;;;;;5379958;26;19999;-78
2024/04/14 05:43:42;;;;;;;3.38;2.85;;;16.80;96.70;;;;;;5392745;26;20159;-78
2024/04/14 05:46:13;;;;;;;5.60;3.10;;;16.80;96.70;;;;;;5388025;26;20081;-78
2024/04/14 05:48:43;;;;;;;3.78;2.70;;;16.80;96.70;;;;;;5378626;26;20022;-78
2024/04/14 05:51:11;;;;;;;5.03;3.17;;;16.80;96.70;;;;;;5418772;26;20004;-78
2024/04/14 05:53:41;;;;;;;6.28;3.40;;;16.80;96.70;;;;;;5393779;26;20073;-78
2024/04/14 05:56:11;;;;;;;4.15;3.70;;;16.80;96.70;;;;;;5428527;26;19999;-77
2024/04/14 05:58:44;;;;;;;8.98;4.07;;;16.90;96.70;;;;;;5374008;26;20352;-79
2024/04/14 06:01:14;;;;;;;5.38;4.15;;;16.90;96.70;;;;;;5398705;26;20497;-77
2024/04/14 06:03:45;;;;;;;5.75;3.65;;;17.00;96.70;;;;;;5412899;26;20011;-79
2024/04/14 06:06:14;;;;;;;5.68;3.88;;;17.10;96.70;;;;;;5421402;26;20000;-79
2024/04/14 06:08:44;;;;;;;7.30;4.03;;;17.00;96.70;;;;;;5405069;26;19999;-79
2024/04/14 06:11:12;;;;;;;7.30;4.45;;;16.90;96.70;;;;;;5397230;26;20004;-78
2024/04/14 06:13:44;;;;;;;8.30;5.07;;;16.90;96.70;;;;;;5416868;26;20097;-78
2024/04/14 06:16:14;;;;;;;7.72;4.45;;;17.00;96.70;;;;;;5401606;26;20000;-79
2024/04/14 06:18:43;;;;;;;5.18;4.43;;;17.00;96.70;;;;;;5400441;26;20008;-78
2024/04/14 06:21:12;;;;;;;8.35;5.22;;;17.00;96.70;;;;;;5409125;26;20084;-78
2024/04/14 06:23:41;;;;;;;9.77;6.35;;;16.90;96.70;;;;;;5402951;26;20474;-79
2024/04/14 06:26:10;;;;;;;8.93;6.43;;;17.00;96.70;;;;;;5407008;26;19999;-79
2024/04/14 06:28:39;;;;;;;8.60;7.05;;;17.00;96.70;;;;;;5392322;26;20000;-78
2024/04/14 06:31:11;;;;;;;8.77;6.70;;;17.10;96.70;;;;;;5395186;26;20832;-78
2024/04/14 06:33:40;;;;;;;10.73;8.35;;;17.20;96.70;;;;;;5373244;26;20011;-77
2024/04/14 06:36:08;;;;;;;12.20;8.30;;;17.30;96.70;;;;;;5397423;26;20012;-78
2024/04/14 06:38:39;;;;;;;11.23;8.70;;;17.30;96.70;;;;;;5407010;26;19999;-77
2024/04/14 06:41:09;;;;;;;11.45;9.32;;;17.30;96.70;;;;;;5409016;26;20003;-77
2024/04/14 06:43:37;;;;;;;11.00;8.38;;;17.40;96.70;;;;;;5408194;26;19999;-77
2024/04/14 06:46:06;;;;;;;10.20;8.07;;;17.40;96.70;;;;;;5400577;26;20000;-77
2024/04/14 06:48:37;;;;;;;10.13;8.70;;;17.40;96.70;;;;;;5405895;26;20003;-77
2024/04/14 06:51:05;;;;;;;9.55;8.18;;;17.40;96.70;;;;;;5406228;26;20011;-77
2024/04/14 06:53:35;;;;;;;10.70;8.05;;;17.50;96.70;;;;;;5377983;26;20015;-77
2024/04/14 06:56:06;;;;;;;11.05;9.07;;;17.50;96.70;;;;;;5384379;26;20039;-77
2024/04/14 06:58:35;;;;;;;12.05;9.02;;;17.50;96.70;;;;;;5405135;26;20670;-79
2024/04/14 07:01:04;;;;;;;12.73;9.30;;;17.60;96.70;;;;;;5393999;26;20120;-80
2024/04/14 07:03:36;;;;;;;10.63;8.85;;;17.60;96.70;;;;;;5408634;26;20027;-77
2024/04/14 07:06:05;;;;;;;11.75;9.38;;;17.70;96.70;;;;;;5414984;26;19999;-78
2024/04/14 07:08:34;;;;;;;11.82;7.80;;;17.80;96.70;;;;;;5390670;26;19999;-77
2024/04/14 07:11:03;;;;;;;10.73;8.50;;;17.90;96.70;;;;;;5371254;26;20045;-77
2024/04/14 07:13:31;;;;;;;10.90;8.45;;;18.00;96.70;;;;;;5378705;26;20000;-77
2024/04/14 07:16:00;;;;;;;9.27;7.78;;;18.10;96.70;;;;;;5390345;26;20007;-77
2024/04/14 07:18:31;;;;;;;10.13;8.52;;;18.20;96.70;;;;;;5386277;26;20003;-79
2024/04/14 07:21:05;;;;;;;11.60;8.40;;;18.20;96.70;;;;;;5413860;26;20363;-80
2024/04/14 07:23:34;;;;;;;11.77;8.90;;;18.30;96.70;;;;;;5380998;26;20346;-79
2024/04/14 07:26:02;;;;;;;12.75;9.60;;;18.40;96.70;;;;;;5382803;26;20011;-80
2024/04/14 07:28:36;;;;;;;10.98;8.07;;;18.50;96.70;;;;;;5382517;26;20004;-79
2024/04/14 07:31:05;;;;;;;12.55;8.88;;;18.60;96.70;;;;;;5412522;26;20019;-79
2024/04/14 07:33:36;;;;;;;11.27;8.80;;;18.60;96.70;;;;;;5408530;26;19999;-80
2024/04/14 07:36:10;;;;;;;10.93;8.98;;;18.80;96.70;;;;;;5391592;26;20017;-79
2024/04/14 07:38:39;;;;;;;13.43;9.90;;;18.90;96.70;;;;;;5421322;26;20081;-79
2024/04/14 07:41:08;;;;;;;11.55;9.63;;;18.90;96.70;;;;;;5373663;26;20014;-79
2024/04/14 07:43:36;;;;;;;12.70;9.48;;;19.00;96.70;;;;;;5403173;26;20039;-75
2024/04/14 07:46:05;;;;;;;11.73;8.63;;;19.10;96.70;;;;;;5387344;26;20845;-77
2024/04/14 07:48:36;;;;;;;10.98;8.40;;;19.20;96.70;;;;;;5387900;26;19995;-77
2024/04/14 07:51:06;;;;;;;11.68;8.75;;;19.20;96.70;;;;;;5407236;26;20019;-78
2024/04/14 07:53:38;;;;;;;14.00;9.18;;;19.30;96.70;;;;;;5406866;26;20089;-78
2024/04/14 07:56:08;;;;;;;11.20;8.20;;;19.40;96.70;;;;;;5408022;26;20011;-77
2024/04/14 07:58:39;;;;;;;10.40;8.23;;;19.40;96.70;;;;;;5373384;26;19999;-77
2024/04/14 08:01:08;;;;;;;9.40;7.53;;;19.50;96.70;;;;;;5411928;26;20011;-75
2024/04/14 08:03:37;;;;;;;12.05;8.38;;;19.60;96.70;;;;;;5406971;26;20006;-75
2024/04/14 08:06:21;;;;;;;9.50;7.18;;;19.70;96.70;;;;;;5406828;26;20004;-75
2024/04/14 08:08:52;;;;;;;10.55;7.95;;;19.80;96.70;;;;;;5378148;26;20081;-74
2024/04/14 08:11:21;;;;;;;10.63;7.47;;;19.80;96.70;;;;;;5406272;26;20076;-75
2024/04/14 08:13:51;;;;;;;13.32;11.48;;;19.90;96.70;;;;;;5411774;26;21059;-76
2024/04/14 08:16:20;;;;;;;152.00;115.45;;;20.00;96.70;;;;;;5381768;26;20081;-75
2024/04/14 08:18:48;;;;;;;23.75;19.45;;;20.10;96.70;;;;;;5407185;26;20014;-76
2024/04/14 08:21:18;;;;;;;23.23;11.02;;;20.20;96.70;;;;;;5379122;26;20010;-76
2024/04/14 08:23:47;;;;;;;11.63;8.15;;;20.20;96.70;;;;;;5383416;26;20010;-77
2024/04/14 08:26:19;;;;;;;11.40;8.18;;;20.30;96.70;;;;;;5378170;26;20007;-76
2024/04/14 08:28:48;;;;;;;8.95;6.90;;;20.30;96.70;;;;;;5393584;26;20366;-76
2024/04/14 08:31:16;;;;;;;11.60;8.25;;;20.40;96.70;;;;;;5418828;26;20015;-76
2024/04/14 08:33:46;;;;;;;8.02;6.78;;;20.50;96.70;;;;;;5398825;26;20422;-75
2024/04/14 08:36:15;;;;;;;11.65;6.68;;;20.60;96.70;;;;;;5383328;26;19999;-77
2024/04/14 08:38:43;;;;;;;8.98;6.47;;;20.60;96.70;;;;;;5398791;26;20019;-76
2024/04/14 08:41:16;;;;;;;7.32;6.28;;;20.70;96.70;;;;;;5406758;26;20035;-77
2024/04/14 08:43:47;;;;;;;9.32;7.32;;;20.90;96.70;;;;;;5379447;26;20080;-78
2024/04/14 08:46:17;;;;;;;9.55;6.30;;;21.10;96.70;;;;;;5380273;26;20010;-78
2024/04/14 08:48:47;;;;;;;7.35;5.35;;;21.10;96.70;;;;;;5377868;26;19999;-77
2024/04/14 08:51:20;;;;;;;7.55;6.18;;;21.10;96.70;;;;;;5407744;26;20426;-77
2024/04/14 08:53:53;;;;;;;8.90;5.93;;;21.30;96.70;;;;;;5378264;26;20058;-78
2024/04/14 08:56:30;;;;;;;9.48;6.15;;;21.50;96.70;;;;;;5404908;26;19999;-78
2024/04/14 08:59:05;;;;;;;8.68;5.05;;;21.60;96.70;;;;;;5408019;26;20031;-79
2024/04/14 09:01:34;;;;;;;10.02;5.85;;;21.60;96.70;;;;;;5379231;26;20008;-79
2024/04/14 09:04:06;;;;;;;7.47;5.65;;;21.70;96.70;;;;;;5416079;26;20080;-78
2024/04/14 09:06:35;;;;;;;7.60;5.97;;;21.70;96.70;;;;;;5387709;26;20013;-79
2024/04/14 09:09:04;;;;;;;14.30;10.77;;;21.90;96.70;;;;;;5408403;26;20097;-78
2024/04/14 09:11:35;;;;;;;11.05;6.95;;;22.00;96.70;;;;;;5413992;26;20388;-79
2024/04/14 09:14:07;;;;;;;12.68;9.40;;;22.00;96.70;;;;;;5378693;26;19995;-79
2024/04/14 09:16:36;;;;;;;31.90;27.08;;;22.00;96.70;;;;;;5373466;26;20000;-79
2024/04/14 09:19:08;;;;;;;60.20;49.55;;;22.10;96.70;;;;;;5434783;26;20080;-77
2024/04/14 09:21:40;;;;;;;32.38;27.70;;;22.30;96.70;;;;;;5366871;26;20003;-79
2024/04/14 09:24:09;;;;;;;19.60;17.02;;;22.40;96.70;;;;;;5412087;26;19999;-78
2024/04/14 09:26:38;;;;;;;25.63;11.45;;;22.50;96.70;;;;;;5411668;26;20396;-79
2024/04/14 09:29:10;;;;;;;9.82;6.10;;;22.50;96.70;;;;;;5407522;26;20132;-78
2024/04/14 09:31:41;;;;;;;7.50;5.93;;;22.60;96.70;;;;;;5409104;26;20004;-78
2024/04/14 09:34:11;;;;;;;12.30;6.00;;;22.70;96.70;;;;;;5389547;26;19996;-77
2024/04/14 09:36:41;;;;;;;6.88;4.93;;;22.80;96.70;;;;;;5381233;26;20003;-81
2024/04/14 09:39:11;;;;;;;6.55;5.45;;;22.90;96.70;;;;;;5398315;26;20012;-78
2024/04/14 09:41:43;;;;;;;9.85;6.05;;;23.00;96.70;;;;;;5393042;26;20021;-77
2024/04/14 09:44:16;;;;;;;12.65;6.45;;;23.00;96.70;;;;;;5405000;26;20506;-76
2024/04/14 09:46:51;;;;;;;8.63;4.82;;;22.90;96.70;;;;;;5400711;26;20003;-76
2024/04/14 09:49:25;;;;;;;9.48;5.70;;;23.00;96.70;;;;;;5378086;26;20010;-78
2024/04/14 09:51:56;;;;;;;9.10;5.35;;;23.20;96.70;;;;;;5378108;26;19999;-78
2024/04/14 09:54:28;;;;;;;7.57;4.85;;;23.10;96.70;;;;;;5414015;26;20009;-74
2024/04/14 09:56:57;;;;;;;9.05;4.05;;;23.20;96.70;;;;;;5376587;26;20096;-78
2024/04/14 09:59:28;;;;;;;8.52;3.35;;;23.30;96.70;;;;;;5370411;26;20012;-78
2024/04/14 10:01:58;;;;;;;6.65;3.55;;;23.60;96.70;;;;;;5385980;26;20003;-79
2024/04/14 10:04:27;;;;;;;7.90;3.90;;;23.70;96.70;;;;;;5384293;26;19996;-80
2024/04/14 10:06:56;;;;;;;6.15;4.15;;;23.70;96.70;;;;;;5410589;26;20521;-83
2024/04/14 10:09:25;;;;;;;8.10;4.32;;;23.80;96.70;;;;;;5386178;26;21152;-81
2024/04/14 10:11:54;;;;;;;5.22;3.92;;;24.00;96.70;;;;;;5381770;26;20530;-78
2024/04/14 10:14:26;;;;;;;7.95;3.97;;;24.10;96.70;;;;;;5403131;26;20344;-85
2024/04/14 10:16:59;;;;;;;19.50;4.90;;;24.20;96.70;;;;;;5384590;26;20010;-88
2024/04/14 10:19:28;;;;;;;5.93;3.80;;;24.40;96.70;;;;;;5411042;26;19999;-87
2024/04/14 10:22:00;;;;;;;6.05;4.28;;;24.50;96.70;;;;;;5379110;26;19996;-83
2024/04/14 10:24:32;;;;;;;7.95;4.05;;;24.60;96.70;;;;;;5374494;26;20015;-85
2024/04/14 10:27:06;;;;;;;7.28;4.10;;;24.80;96.70;;;;;;5379699;26;20372;-87
2024/04/14 10:29:34;;;;;;;6.55;4.70;;;24.80;96.70;;;;;;5404928;26;19996;-88
2024/04/14 10:32:13;;;;;;;5.65;4.30;;;24.70;96.70;;;;;;5387554;26;20007;-88
2024/04/14 10:34:42;;;;;;;7.28;4.10;;;24.90;96.70;;;;;;5384959;26;20081;-76
2024/04/14 10:37:22;;;;;;;6.53;4.07;;;24.90;96.70;;;;;;5405648;26;19995;-74
2024/04/14 10:39:52;;;;;;;8.63;4.30;;;25.20;96.70;;;;;;5391972;26;20421;-75
2024/04/14 10:42:23;;;;;;;7.22;4.07;;;25.30;96.70;;;;;;5377818;26;20019;-76
2024/04/14 10:44:53;;;;;;;6.40;3.53;;;25.60;96.70;;;;;;5381907;26;20000;-74
2024/04/14 10:47:24;;;;;;;6.35;4.22;;;25.60;96.70;;;;;;5399106;26;19996;-75
2024/04/14 10:49:53;;;;;;;4.82;3.72;;;25.80;96.70;;;;;;5390070;26;20036;-76
2024/04/14 10:52:22;;;;;;;7.78;3.78;;;25.90;96.70;;;;;;5367578;26;20023;-75
2024/04/14 10:54:50;;;;;;;3.83;3.17;;;25.90;96.70;;;;;;5392460;26;20010;-76
2024/04/14 10:57:19;;;;;;;5.40;3.80;;;26.00;96.70;;;;;;5405083;26;20010;-75
2024/04/14 10:59:50;;;;;;;4.70;3.92;;;26.10;96.70;;;;;;5408117;26;20386;-76
2024/04/14 11:02:19;;;;;;;4.47;4.00;;;26.20;96.70;;;;;;5375734;26;20054;-76
2024/04/14 11:04:51;;;;;;;7.68;3.88;;;26.30;96.70;;;;;;5380336;26;19995;-76
2024/04/14 11:07:21;;;;;;;4.13;3.30;;;26.40;96.70;;;;;;5380067;26;20054;-76
2024/04/14 11:09:50;;;;;;;9.13;4.22;;;26.40;96.70;;;;;;5417290;26;19999;-75
2024/04/14 11:12:21;;;;;;;9.18;3.63;;;26.60;96.70;;;;;;5411873;26;20118;-77
2024/04/14 11:14:49;;;;;;;7.07;3.38;;;26.60;96.70;;;;;;5380665;26;20019;-75
2024/04/14 11:17:19;;;;;;;6.60;3.67;;;26.80;96.70;;;;;;5409547;26;19996;-75
2024/04/14 11:19:57;;;;;;;7.13;5.47;;;26.80;96.70;;;;;;5400918;26;20004;-75
2024/04/14 11:22:25;;;;;;;5.43;3.35;;;26.80;96.70;;;;;;5377569;26;20039;-76
2024/04/14 11:24:54;;;;;;;5.60;3.97;;;27.00;96.70;;;;;;5409194;26;20589;-76
2024/04/14 11:27:23;;;;;;;5.03;4.10;;;26.90;96.70;;;;;;5406997;26;20008;-75
2024/04/14 11:29:52;;;;;;;6.28;3.60;;;27.00;96.70;;;;;;5387470;26;20837;-75
2024/04/14 11:32:33;;;;;;;6.78;3.63;;;27.00;96.70;;;;;;5408165;26;20035;-75
2024/04/14 11:35:08;;;;;;;5.75;3.55;;;27.10;96.70;;;;;;5389046;26;20037;-75
2024/04/14 11:37:43;;;;;;;5.03;3.30;;;27.30;96.70;;;;;;5408272;26;20010;-75
2024/04/14 11:40:15;;;;;;;6.13;3.15;;;27.40;96.70;;;;;;5401728;26;20822;-76
2024/04/14 11:42:46;;;;;;;8.05;3.25;;;27.40;96.70;;;;;;5403534;26;20012;-74
2024/04/14 11:45:15;;;;;;;4.05;2.92;;;27.50;96.70;;;;;;5408184;26;20317;-75
2024/04/14 11:47:45;;;;;;;7.47;3.55;;;27.50;96.70;;;;;;5377768;26;19999;-75
2024/04/14 11:50:17;;;;;;;5.63;3.70;;;27.60;96.70;;;;;;5372586;26;20016;-74
2024/04/14 11:52:47;;;;;;;6.78;3.53;;;27.70;96.70;;;;;;5396862;26;20011;-74
2024/04/14 11:55:17;;;;;;;6.43;4.22;;;27.80;96.70;;;;;;5406184;26;20438;-75
2024/04/14 11:57:45;;;;;;;6.95;3.88;;;27.90;96.70;;;;;;5432647;26;20000;-75
2024/04/14 12:00:14;;;;;;;7.40;3.60;;;27.80;96.70;;;;;;5373686;26;20014;-75
2024/04/14 12:02:44;;;;;;;7.97;4.03;;;27.90;96.70;;;;;;5378873;26;20486;-74
2024/04/14 12:05:18;;;;;;;7.32;3.47;;;28.00;96.70;;;;;;5379491;26;20011;-75
2024/04/14 12:07:49;;;;;;;7.35;4.07;;;28.10;96.70;;;;;;5408016;26;20011;-76
2024/04/14 12:10:19;;;;;;;5.07;3.78;;;28.00;96.70;;;;;;5407985;26;20015;-78
2024/04/14 12:12:48;;;;;;;8.48;3.38;;;28.00;96.70;;;;;;5401536;26;20420;-76
2024/04/14 12:15:17;;;;;;;5.55;3.25;;;28.00;96.70;;;;;;5378571;26;20023;-76
2024/04/14 12:17:47;;;;;;;7.25;3.78;;;28.00;96.70;;;;;;5406995;26;20000;-76
2024/04/14 12:20:19;;;;;;;8.65;3.97;;;28.10;96.70;;;;;;5404918;26;20326;-76
2024/04/14 12:22:51;;;;;;;8.35;3.88;;;28.20;96.70;;;;;;5407127;26;20007;-77
2024/04/14 12:25:21;;;;;;;6.53;3.63;;;28.10;96.70;;;;;;5402982;26;20070;-75
2024/04/14 12:27:50;;;;;;;5.63;3.50;;;28.20;96.70;;;;;;5410055;26;20043;-75
2024/04/14 12:30:19;;;;;;;5.60;3.53;;;28.20;96.70;;;;;;5377620;26;20035;-76
2024/04/14 12:32:58;;;;;;;5.70;3.75;;;28.20;96.70;;;;;;5422739;26;20004;-75
2024/04/14 12:35:29;;;;;;;7.35;4.30;;;28.40;96.70;;;;;;5397167;26;20019;-75
2024/04/14 12:37:58;;;;;;;6.55;4.00;;;28.30;96.70;;;;;;5401561;26;20073;-76
2024/04/14 12:40:27;;;;;;;7.22;4.70;;;28.30;96.70;;;;;;5402559;26;20053;-76
2024/04/14 12:42:57;;;;;;;6.60;4.10;;;28.30;96.70;;;;;;5378770;26;20093;-76
2024/04/14 12:45:26;;;;;;;7.45;3.65;;;28.20;96.70;;;;;;5382342;26;20078;-86
2024/04/14 12:47:57;;;;;;;9.23;3.97;;;28.20;96.70;;;;;;5379356;26;20000;-78
2024/04/14 12:50:31;;;;;;;6.43;3.60;;;28.20;96.70;;;;;;5375086;26;20718;-76
2024/04/14 12:53:12;;;;;;;6.88;3.10;;;28.30;96.70;;;;;;5406934;26;20011;-80
2024/04/14 12:55:43;;;;;;;5.55;3.20;;;28.30;96.70;;;;;;5423734;26;20011;-79
2024/04/14 12:58:13;;;;;;;5.78;3.13;;;28.20;96.70;;;;;;5395504;26;20340;-78
2024/04/14 13:00:42;;;;;;;4.35;3.20;;;28.00;96.70;;;;;;5375849;26;20040;-79